createdAt,value
2018-03-17T00:00:37.534Z,15.37
2018-03-17T00:03:05.041Z,16.10
2018-03-17T00:05:33.289Z,13.10
2018-03-17T00:08:00.772Z,17.00
2018-03-17T00:10:28.299Z,14.80
2018-03-17T00:12:55.790Z,13.30
2018-03-17T00:15:23.280Z,16.77
2018-03-17T00:17:50.742Z,16.53
2018-03-17T00:20:22.643Z,17.00
2018-03-17T00:22:50.117Z,15.80
2018-03-17T00:25:17.597Z,15.50
2018-03-17T00:27:45.272Z,18.00
2018-03-17T00:30:12.759Z,15.70
2018-03-17T00:32:41.003Z,15.50
2018-03-17T00:35:08.494Z,17.20
2018-03-17T00:37:35.978Z,14.20
2018-03-17T00:40:03.481Z,15.50
2018-03-17T00:42:30.964Z,16.13
2018-03-17T00:44:58.451Z,16.43
2018-03-17T00:47:25.922Z,16.87
2018-03-17T00:49:53.439Z,15.50
2018-03-17T00:52:21.674Z,17.40
2018-03-17T00:54:49.158Z,16.53
2018-03-17T00:57:17.388Z,18.20
2018-03-17T00:59:45.653Z,17.70
2018-03-17T01:02:13.121Z,17.47
2018-03-17T01:04:41.458Z,16.13
2018-03-17T01:07:08.950Z,18.30
2018-03-17T01:09:36.422Z,15.47
2018-03-17T01:12:04.005Z,16.30
2018-03-17T01:14:31.489Z,15.80
2018-03-17T01:16:59.794Z,16.57
2018-03-17T01:19:27.262Z,16.20
2018-03-17T01:21:54.738Z,19.10
2018-03-17T01:24:22.218Z,16.53
2018-03-17T01:26:49.710Z,15.83
2018-03-17T01:29:17.207Z,16.30
2018-03-17T01:31:44.703Z,16.43
2018-03-17T01:34:12.201Z,15.50
2018-03-17T01:36:40.525Z,16.83
2018-03-17T01:39:08.093Z,15.77
2018-03-17T01:41:36.337Z,17.73
2018-03-17T01:44:03.834Z,15.77
2018-03-17T01:46:31.341Z,16.03
2018-03-17T01:48:58.860Z,16.33
2018-03-17T01:51:26.345Z,16.63
2018-03-17T01:54:05.622Z,17.47
2018-03-17T01:56:33.151Z,16.23
2018-03-17T01:59:00.619Z,18.20
2018-03-17T02:01:28.127Z,17.53
2018-03-17T02:03:55.615Z,16.43
2018-03-17T02:06:23.074Z,17.97
2018-03-17T02:08:50.582Z,17.40
2018-03-17T02:11:18.044Z,17.07
2018-03-17T02:13:45.534Z,17.20
2018-03-17T02:16:12.998Z,15.83
2018-03-17T02:18:40.490Z,16.27
2018-03-17T02:21:07.962Z,15.73
2018-03-17T02:23:35.573Z,15.90
2018-03-17T02:26:03.098Z,17.30
2018-03-17T02:28:30.635Z,15.60
2018-03-17T02:30:58.111Z,16.83
2018-03-17T02:33:25.583Z,18.47
2018-03-17T02:35:53.066Z,16.20
2018-03-17T02:38:20.530Z,19.23
2018-03-17T02:40:48.022Z,18.20
2018-03-17T02:43:15.491Z,17.67
2018-03-17T02:45:42.980Z,18.00
2018-03-17T02:48:10.458Z,18.17
2018-03-17T02:50:38.714Z,18.77
2018-03-17T02:53:06.249Z,17.43
2018-03-17T02:55:33.787Z,17.20
2018-03-17T02:58:01.258Z,19.27
2018-03-17T03:00:29.523Z,18.93
2018-03-17T03:02:56.983Z,19.27
2018-03-17T03:05:24.475Z,18.40
2018-03-17T03:07:51.938Z,18.13
2018-03-17T03:10:19.428Z,17.03
2018-03-17T03:12:46.961Z,19.27
2018-03-17T03:15:14.469Z,17.67
2018-03-17T03:17:41.950Z,16.30
2018-03-17T03:20:10.186Z,18.23
2018-03-17T03:22:37.690Z,16.53
2018-03-17T03:25:05.155Z,17.93
2018-03-17T03:27:32.665Z,16.33
2018-03-17T03:30:00.158Z,16.57
2018-03-17T03:32:27.665Z,17.97
2018-03-17T03:34:55.251Z,15.53
2018-03-17T03:37:22.746Z,17.10
2018-03-17T03:39:50.331Z,15.97
2018-03-17T03:42:17.818Z,18.80
2018-03-17T03:44:45.294Z,18.37
2018-03-17T03:47:12.759Z,15.67
2018-03-17T03:49:40.242Z,19.60
2018-03-17T03:52:07.725Z,17.17
2018-03-17T03:54:35.254Z,17.70
2018-03-17T03:57:02.742Z,18.93
2018-03-17T03:59:30.242Z,17.80
2018-03-17T04:01:58.474Z,19.37
2018-03-17T04:04:26.722Z,18.57
2018-03-17T04:06:54.194Z,18.23
2018-03-17T04:09:22.449Z,19.50
2018-03-17T04:11:49.924Z,23.23
2018-03-17T04:14:17.434Z,19.33
2018-03-17T04:16:45.721Z,20.17
2018-03-17T04:19:13.207Z,19.37
2018-03-17T04:21:40.819Z,20.77
2018-03-17T04:24:08.301Z,17.73
2018-03-17T04:26:35.799Z,18.43
2018-03-17T04:29:03.326Z,17.70
2018-03-17T04:31:30.796Z,16.50
2018-03-17T04:33:58.294Z,15.73
2018-03-17T04:36:25.770Z,17.63
2018-03-17T04:38:53.242Z,17.93
2018-03-17T04:41:20.718Z,17.83
2018-03-17T04:43:48.190Z,16.33
2018-03-17T04:46:15.672Z,17.33
2018-03-17T04:48:43.134Z,18.30
2018-03-17T04:51:10.663Z,15.00
2018-03-17T04:53:38.131Z,16.97
2018-03-17T04:56:06.401Z,14.50
2018-03-17T04:58:33.871Z,16.50
2018-03-17T05:01:02.135Z,16.97
2018-03-17T05:03:29.603Z,15.40
2018-03-17T05:05:57.090Z,15.77
2018-03-17T05:08:24.557Z,14.93
2018-03-17T05:10:52.047Z,15.90
2018-03-17T05:13:20.282Z,15.50
2018-03-17T05:15:47.766Z,15.37
2018-03-17T05:18:15.238Z,15.37
2018-03-17T05:20:42.706Z,13.53
2018-03-17T05:23:10.251Z,14.57
2018-03-17T05:25:37.718Z,14.63
2018-03-17T05:28:05.210Z,14.13
2018-03-17T05:30:32.685Z,18.07
2018-03-17T05:33:00.179Z,15.60
2018-03-17T05:35:27.736Z,15.97
2018-03-17T05:37:55.199Z,15.87
2018-03-17T05:40:22.669Z,14.93
2018-03-17T05:42:50.186Z,16.07
2018-03-17T05:45:18.426Z,15.13
2018-03-17T05:47:45.906Z,14.10
2018-03-17T05:50:13.373Z,15.83
2018-03-17T05:52:40.854Z,14.40
2018-03-17T05:55:08.317Z,15.30
2018-03-17T05:57:35.811Z,15.90
2018-03-17T06:00:03.290Z,14.13
2018-03-17T06:02:30.848Z,12.43
2018-03-17T06:04:58.310Z,15.70
2018-03-17T06:07:25.964Z,15.67
2018-03-17T06:09:53.459Z,14.40
2018-03-17T06:12:20.937Z,14.83
2018-03-17T06:14:48.434Z,12.60
2018-03-17T06:17:16.673Z,14.00
2018-03-17T06:19:44.173Z,14.07
2018-03-17T06:22:11.646Z,13.93
2018-03-17T06:24:39.136Z,12.50
2018-03-17T06:27:07.374Z,13.67
2018-03-17T06:29:34.872Z,13.00
2018-03-17T06:32:02.382Z,13.20
2018-03-17T06:34:29.872Z,13.20
2018-03-17T06:36:57.342Z,10.77
2018-03-17T06:39:24.839Z,10.93
2018-03-17T06:41:52.315Z,12.47
2018-03-17T06:44:19.800Z,12.80
2018-03-17T06:46:47.274Z,12.17
2018-03-17T06:49:14.986Z,12.30
2018-03-17T06:51:42.457Z,13.10
2018-03-17T06:54:09.935Z,11.40
2018-03-17T06:56:37.434Z,11.53
2018-03-17T06:59:04.937Z,13.97
2018-03-17T07:01:32.422Z,11.70
2018-03-17T07:04:00.680Z,12.00
2018-03-17T07:06:28.166Z,11.87
2018-03-17T07:08:55.632Z,12.03
2018-03-17T07:11:23.123Z,11.20
2018-03-17T07:13:51.432Z,11.10
2018-03-17T07:16:18.921Z,13.50
2018-03-17T07:18:46.384Z,10.50
2018-03-17T07:21:13.860Z,11.90
2018-03-17T07:23:41.335Z,11.37
2018-03-17T07:26:08.827Z,12.10
2018-03-17T07:28:36.294Z,11.13
2018-03-17T07:31:04.116Z,11.83
2018-03-17T07:33:32.370Z,12.47
2018-03-17T07:35:59.847Z,11.97
2018-03-17T07:38:27.343Z,11.43
2018-03-17T07:40:55.571Z,16.83
2018-03-17T07:43:23.062Z,11.67
2018-03-17T07:45:50.532Z,11.53
2018-03-17T07:48:18.027Z,11.40
2018-03-17T07:50:45.490Z,11.23
2018-03-17T07:53:13.009Z,12.30
2018-03-17T07:55:40.521Z,11.90
2018-03-17T07:58:08.023Z,12.57
2018-03-17T08:00:35.521Z,13.00
2018-03-17T08:03:03.166Z,17.47
2018-03-17T08:05:30.638Z,12.77
2018-03-17T08:07:58.139Z,12.20
2018-03-17T08:10:25.678Z,12.10
2018-03-17T08:12:53.207Z,12.27
2018-03-17T08:15:20.693Z,12.83
2018-03-17T08:17:48.926Z,12.23
2018-03-17T08:20:17.181Z,12.20
2018-03-17T08:22:44.640Z,11.60
2018-03-17T08:25:12.125Z,12.23
2018-03-17T08:27:39.601Z,12.57
2018-03-17T08:30:07.080Z,12.70
2018-03-17T08:32:34.566Z,11.93
2018-03-17T08:35:02.824Z,12.33
2018-03-17T08:37:30.296Z,10.67
2018-03-17T08:39:57.821Z,11.50
2018-03-17T08:42:25.315Z,13.87
2018-03-17T08:44:52.811Z,12.43
2018-03-17T08:47:20.270Z,10.80
2018-03-17T08:49:47.739Z,11.60
2018-03-17T08:52:15.227Z,10.63
2018-03-17T08:54:42.696Z,11.97
2018-03-17T08:57:10.238Z,11.73
2018-03-17T08:59:37.703Z,11.57
2018-03-17T09:02:05.185Z,11.23
2018-03-17T09:04:32.657Z,12.53
2018-03-17T09:07:00.163Z,10.00
2018-03-17T09:09:27.661Z,11.13
2018-03-17T09:11:55.959Z,10.87
2018-03-17T09:14:23.534Z,11.53
2018-03-17T09:16:51.021Z,10.77
2018-03-17T09:19:18.487Z,12.80
2018-03-17T09:21:45.965Z,10.90
2018-03-17T09:24:13.450Z,10.47
2018-03-17T09:26:40.965Z,11.20
2018-03-17T09:29:08.437Z,11.20
2018-03-17T09:31:36.692Z,10.23
2018-03-17T09:34:04.957Z,10.33
2018-03-17T09:36:32.426Z,10.30
2018-03-17T09:38:59.926Z,10.57
2018-03-17T09:41:27.415Z,10.07
2018-03-17T09:43:54.923Z,10.27
2018-03-17T09:46:22.473Z,10.53
2018-03-17T09:48:51.280Z,9.47
2018-03-17T09:51:19.512Z,14.03
2018-03-17T09:53:47.016Z,9.83
2018-03-17T09:56:14.489Z,11.00
2018-03-17T09:58:41.979Z,10.07
2018-03-17T10:01:10.210Z,10.03
2018-03-17T10:03:37.731Z,9.83
2018-03-17T10:06:05.199Z,9.80
2018-03-17T10:08:32.702Z,9.57
2018-03-17T10:11:00.167Z,10.30
2018-03-17T10:13:27.628Z,9.90
2018-03-17T10:15:55.106Z,10.67
2018-03-17T10:18:23.354Z,10.57
2018-03-17T10:20:50.962Z,9.10
2018-03-17T10:23:18.425Z,10.20
2018-03-17T10:25:46.754Z,11.40
2018-03-17T10:28:14.231Z,10.80
2018-03-17T10:30:41.707Z,9.70
2018-03-17T10:33:09.178Z,10.47
2018-03-17T10:35:36.749Z,9.67
2018-03-17T10:38:04.211Z,10.20
2018-03-17T10:40:31.699Z,10.63
2018-03-17T10:43:00.012Z,10.37
2018-03-17T10:45:27.495Z,9.27
2018-03-17T10:47:55.135Z,10.20
2018-03-17T10:50:22.618Z,11.40
2018-03-17T10:52:50.120Z,10.00
2018-03-17T10:55:17.632Z,9.17
2018-03-17T10:57:45.120Z,11.23
2018-03-17T11:00:12.785Z,9.07
2018-03-17T11:02:41.188Z,10.13
2018-03-17T11:05:08.701Z,10.70
2018-03-17T11:07:36.233Z,12.57
2018-03-17T11:10:03.921Z,8.87
2018-03-17T11:12:32.256Z,8.13
2018-03-17T11:14:59.780Z,11.53
2018-03-17T11:17:27.283Z,9.13
2018-03-17T11:19:55.522Z,10.53
2018-03-17T11:22:23.010Z,8.90
2018-03-17T11:24:50.465Z,9.57
2018-03-17T11:27:17.946Z,9.03
2018-03-17T11:29:45.415Z,8.43
2018-03-17T11:32:12.896Z,9.20
2018-03-17T11:34:40.419Z,9.57
2018-03-17T11:37:07.907Z,8.37
2018-03-17T11:39:35.371Z,8.93
2018-03-17T11:42:02.846Z,8.43
2018-03-17T11:44:30.335Z,9.17
2018-03-17T11:46:57.795Z,8.17
2018-03-17T11:49:25.293Z,7.90
2018-03-17T11:51:52.762Z,8.93
2018-03-17T11:54:20.317Z,9.47
2018-03-17T11:56:47.782Z,9.57
2018-03-17T11:59:15.281Z,9.97
2018-03-17T12:01:43.531Z,10.27
2018-03-17T12:04:11.030Z,8.40
2018-03-17T12:06:38.500Z,10.00
2018-03-17T12:09:05.986Z,8.97
2018-03-17T12:11:33.585Z,8.97
2018-03-17T12:14:01.841Z,8.97
2018-03-17T12:16:29.349Z,12.13
2018-03-17T12:18:57.611Z,9.27
2018-03-17T12:21:25.098Z,12.30
2018-03-17T12:23:52.573Z,10.30
2018-03-17T12:26:20.828Z,18.13
2018-03-17T12:28:48.294Z,11.23
2018-03-17T12:31:15.786Z,12.73
2018-03-17T12:33:43.255Z,9.40
2018-03-17T12:36:10.735Z,9.07
2018-03-17T12:38:38.196Z,7.67
2018-03-17T12:41:05.722Z,7.73
2018-03-17T12:43:33.191Z,9.07
2018-03-17T12:46:00.755Z,7.33
2018-03-17T12:48:28.251Z,7.93
2018-03-17T12:50:55.813Z,8.63
2018-03-17T12:53:23.294Z,8.50
2018-03-17T12:55:50.767Z,9.20
2018-03-17T12:58:18.238Z,7.70
2018-03-17T13:00:45.730Z,9.47
2018-03-17T13:03:13.232Z,9.63
2018-03-17T13:05:40.706Z,8.47
2018-03-17T13:08:09.022Z,8.93
2018-03-17T13:10:36.588Z,9.27
2018-03-17T13:13:04.074Z,9.50
2018-03-17T13:15:31.572Z,8.53
2018-03-17T13:17:59.033Z,9.50
2018-03-17T13:20:26.589Z,9.53
2018-03-17T13:23:05.916Z,10.23
2018-03-17T13:25:33.401Z,9.17
2018-03-17T13:28:12.762Z,14.30
2018-03-17T13:30:40.268Z,16.20
2018-03-17T13:33:07.754Z,11.23
2018-03-17T13:35:46.973Z,8.13
2018-03-17T13:38:14.435Z,6.73
2018-03-17T13:40:42.019Z,6.73
2018-03-17T13:43:09.485Z,7.27
2018-03-17T13:45:36.993Z,7.70
2018-03-17T13:48:04.538Z,9.10
2018-03-17T13:50:32.151Z,9.23
2018-03-17T13:52:59.626Z,7.47
2018-03-17T13:55:28.024Z,7.60
2018-03-17T13:57:55.598Z,8.73
2018-03-17T14:00:23.172Z,8.00
2018-03-17T14:02:50.669Z,7.53
2018-03-17T14:05:18.213Z,7.43
2018-03-17T14:07:45.861Z,7.73
2018-03-17T14:10:14.511Z,7.93
2018-03-17T14:12:43.266Z,9.47
2018-03-17T14:15:10.729Z,9.70
2018-03-17T14:17:38.311Z,10.50
2018-03-17T14:20:06.538Z,9.77
2018-03-17T14:22:34.021Z,8.53
2018-03-17T14:25:01.484Z,7.67
2018-03-17T14:27:29.038Z,7.70
2018-03-17T14:29:56.580Z,7.87
2018-03-17T14:32:24.058Z,13.57
2018-03-17T14:34:52.308Z,12.73
2018-03-17T14:37:19.806Z,14.80
2018-03-17T14:39:47.292Z,18.10
2018-03-17T14:42:15.556Z,9.77
2018-03-17T14:44:43.016Z,9.47
2018-03-17T14:47:10.502Z,10.77
2018-03-17T14:49:37.973Z,9.20
2018-03-17T14:52:05.446Z,8.07
2018-03-17T14:54:32.944Z,9.77
2018-03-17T14:57:01.188Z,9.47
2018-03-17T14:59:28.681Z,9.37
2018-03-17T15:01:56.201Z,8.90
2018-03-17T15:04:23.687Z,8.87
2018-03-17T15:06:51.153Z,9.30
2018-03-17T15:09:18.636Z,9.87
2018-03-17T15:11:46.111Z,10.47
2018-03-17T15:14:14.387Z,11.73
2018-03-17T15:16:41.923Z,10.33
2018-03-17T15:19:09.422Z,11.23
2018-03-17T15:21:36.909Z,10.43
2018-03-17T15:24:04.500Z,8.53
2018-03-17T15:26:32.795Z,12.40
2018-03-17T15:29:00.272Z,9.40
2018-03-17T15:31:27.780Z,12.47
2018-03-17T15:33:55.302Z,10.83
2018-03-17T15:36:22.778Z,8.73
2018-03-17T15:38:50.259Z,9.10
2018-03-17T15:41:17.768Z,9.37
2018-03-17T15:43:45.325Z,10.50
2018-03-17T15:46:12.936Z,9.77
2018-03-17T15:48:41.314Z,10.20
2018-03-17T15:51:08.822Z,12.63
2018-03-17T15:53:36.560Z,13.37
2018-03-17T15:56:04.220Z,9.17
2018-03-17T15:58:32.530Z,9.63
2018-03-17T16:01:01.052Z,7.97
2018-03-17T16:03:28.529Z,8.37
2018-03-17T16:05:57.010Z,10.03
2018-03-17T16:08:24.614Z,8.23
2018-03-17T16:10:52.106Z,9.20
2018-03-17T16:13:20.355Z,14.33
2018-03-17T16:15:47.823Z,10.63
2018-03-17T16:18:15.309Z,9.50
2018-03-17T16:20:42.834Z,14.90
2018-03-17T16:23:10.325Z,9.63
2018-03-17T16:25:37.813Z,10.67
2018-03-17T16:28:05.338Z,11.60
2018-03-17T16:30:32.817Z,9.37
2018-03-17T16:33:00.306Z,10.57
2018-03-17T16:35:27.767Z,12.33
2018-03-17T16:37:55.238Z,13.50
2018-03-17T16:40:22.735Z,9.77
2018-03-17T16:42:50.242Z,9.57
2018-03-17T16:45:18.501Z,19.90
2018-03-17T16:47:45.979Z,9.97
2018-03-17T16:50:13.495Z,13.37
2018-03-17T16:52:41.066Z,11.70
2018-03-17T16:55:08.572Z,10.90
2018-03-17T16:57:36.042Z,11.77
2018-03-17T17:00:03.592Z,9.43
2018-03-17T17:02:31.249Z,10.67
2018-03-17T17:04:58.746Z,10.60
2018-03-17T17:07:26.217Z,13.13
2018-03-17T17:09:53.701Z,12.27
2018-03-17T17:12:21.157Z,9.80
2018-03-17T17:14:48.655Z,10.17
2018-03-17T17:17:17.383Z,10.67
2018-03-17T17:19:44.815Z,10.27
2018-03-17T17:22:12.358Z,10.07
2018-03-17T17:24:39.934Z,11.07
2018-03-17T17:27:07.417Z,10.87
2018-03-17T17:29:34.880Z,9.90
2018-03-17T17:32:02.467Z,9.13
2018-03-17T17:34:29.942Z,9.13
2018-03-17T17:36:57.599Z,9.83
2018-03-17T17:39:25.111Z,13.03
2018-03-17T17:41:52.607Z,10.57
2018-03-17T17:44:20.080Z,12.47
2018-03-17T17:46:47.582Z,9.67
2018-03-17T17:49:15.072Z,13.37
2018-03-17T17:51:42.559Z,18.10
2018-03-17T17:54:10.071Z,15.03
2018-03-17T17:56:37.587Z,16.33
2018-03-17T17:59:05.054Z,12.27
2018-03-17T18:01:32.543Z,12.23
2018-03-17T18:04:00.146Z,13.23
2018-03-17T18:06:27.638Z,12.10
2018-03-17T18:08:55.882Z,10.77
2018-03-17T18:11:23.427Z,12.07
2018-03-17T18:13:50.971Z,14.70
2018-03-17T18:16:19.214Z,10.30
2018-03-17T18:18:46.741Z,10.77
2018-03-17T18:21:14.271Z,10.73
2018-03-17T18:23:41.770Z,12.70
2018-03-17T18:26:09.286Z,11.53
2018-03-17T18:28:37.672Z,11.43
2018-03-17T18:31:05.213Z,12.83
2018-03-17T18:33:33.508Z,12.47
2018-03-17T18:36:01.006Z,15.70
2018-03-17T18:38:28.572Z,12.00
2018-03-17T18:40:56.067Z,11.50
2018-03-17T18:43:23.774Z,13.20
2018-03-17T18:45:51.255Z,14.87
2018-03-17T18:48:18.819Z,14.73
2018-03-17T18:50:46.434Z,13.10
2018-03-17T18:53:14.027Z,11.53
2018-03-17T18:55:42.410Z,12.03
2018-03-17T18:58:10.201Z,14.37
2018-03-17T19:00:37.742Z,11.13
2018-03-17T19:03:05.611Z,10.83
2018-03-17T19:05:33.939Z,9.67
2018-03-17T19:08:01.472Z,9.57
2018-03-17T19:10:29.800Z,12.97
2018-03-17T19:12:57.360Z,8.97
2018-03-17T19:15:24.890Z,12.23
2018-03-17T19:17:52.361Z,12.30
2018-03-17T19:20:19.862Z,15.23
2018-03-17T19:22:47.365Z,11.37
2018-03-17T19:25:14.870Z,11.73
2018-03-17T19:27:42.350Z,12.33
2018-03-17T19:30:09.834Z,12.47
2018-03-17T19:32:38.146Z,9.57
2018-03-17T19:35:05.631Z,9.03
2018-03-17T19:37:33.773Z,10.80
2018-03-17T19:40:01.314Z,11.50
2018-03-17T19:42:28.954Z,8.73
2018-03-17T19:44:56.557Z,8.50
2018-03-17T19:47:24.068Z,9.87
2018-03-17T19:49:51.561Z,9.43
2018-03-17T19:52:19.850Z,9.67
2018-03-17T19:54:48.151Z,10.10
2018-03-17T19:57:15.685Z,8.70
2018-03-17T19:59:43.189Z,10.23
2018-03-17T20:02:10.708Z,9.73
2018-03-17T20:04:38.772Z,12.37
2018-03-17T20:07:07.271Z,9.57
2018-03-17T20:09:34.903Z,8.53
2018-03-17T20:12:02.480Z,8.83
2018-03-17T20:14:30.766Z,10.10
2018-03-17T20:16:59.088Z,10.77
2018-03-17T20:19:26.583Z,9.30
2018-03-17T20:21:54.136Z,13.53
2018-03-17T20:24:21.789Z,8.17
2018-03-17T20:26:49.297Z,11.17
2018-03-17T20:29:17.555Z,8.70
2018-03-17T20:31:45.158Z,10.20
2018-03-17T20:34:12.697Z,8.77
2018-03-17T20:36:41.797Z,12.03
2018-03-17T20:39:09.357Z,12.87
2018-03-17T20:41:37.641Z,10.97
2018-03-17T20:44:05.980Z,9.47
2018-03-17T20:46:33.546Z,9.53
2018-03-17T20:49:01.976Z,10.90
2018-03-17T20:51:29.774Z,8.63
2018-03-17T20:53:57.936Z,7.93
2018-03-17T20:56:25.554Z,9.20
2018-03-17T20:58:53.802Z,8.07
2018-03-17T21:01:21.350Z,8.83
2018-03-17T21:03:49.687Z,9.10
2018-03-17T21:06:17.162Z,9.00
2018-03-17T21:08:44.643Z,8.37
2018-03-17T21:11:12.880Z,7.40
2018-03-17T21:13:40.741Z,10.47
2018-03-17T21:16:08.553Z,8.93
2018-03-17T21:18:36.344Z,8.57
2018-03-17T21:21:03.900Z,10.17
2018-03-17T21:23:33.465Z,9.43
2018-03-17T21:26:01.735Z,9.60
2018-03-17T21:28:29.489Z,8.93
2018-03-17T21:30:57.027Z,10.03
2018-03-17T21:33:24.546Z,10.00
2018-03-17T21:35:52.002Z,12.63
2018-03-17T21:38:19.498Z,8.37
2018-03-17T21:40:46.973Z,9.07
2018-03-17T21:43:14.730Z,9.87
2018-03-17T21:45:43.318Z,9.03
2018-03-17T21:48:10.839Z,8.80
2018-03-17T21:50:39.065Z,11.20
2018-03-17T21:53:06.554Z,9.07
2018-03-17T21:55:34.028Z,9.57
2018-03-17T21:58:01.573Z,8.63
2018-03-17T22:00:29.029Z,8.17
2018-03-17T22:02:56.538Z,8.27
2018-03-17T22:05:24.005Z,10.93
2018-03-17T22:07:51.557Z,8.53
2018-03-17T22:10:19.758Z,8.67
2018-03-17T22:12:48.055Z,9.40
2018-03-17T22:15:15.557Z,10.40
2018-03-17T22:17:43.045Z,8.73
2018-03-17T22:20:13.238Z,11.07
2018-03-17T22:22:40.874Z,8.93
2018-03-17T22:25:08.417Z,8.17
2018-03-17T22:27:35.963Z,10.83
2018-03-17T22:30:03.515Z,9.97
2018-03-17T22:32:31.266Z,10.63
2018-03-17T22:34:59.817Z,9.37
2018-03-17T22:37:28.375Z,19.23
2018-03-17T22:39:55.846Z,10.33
2018-03-17T22:42:24.322Z,9.23
2018-03-17T22:44:51.810Z,11.67
2018-03-17T22:47:19.330Z,12.13
2018-03-17T22:49:46.893Z,10.23
2018-03-17T22:52:14.486Z,10.03
2018-03-17T22:54:42.875Z,9.53
2018-03-17T22:57:10.338Z,11.60
2018-03-17T22:59:37.901Z,11.67
2018-03-17T23:02:05.446Z,14.77
2018-03-17T23:04:33.105Z,11.40
2018-03-17T23:07:01.029Z,10.67
2018-03-17T23:09:28.540Z,10.30
2018-03-17T23:11:56.812Z,11.70
2018-03-17T23:14:24.361Z,11.17
2018-03-17T23:16:51.926Z,11.93
2018-03-17T23:19:19.404Z,12.87
2018-03-17T23:21:46.933Z,12.60
2018-03-17T23:24:14.494Z,11.47
2018-03-17T23:26:41.961Z,13.27
2018-03-17T23:29:09.443Z,12.57
2018-03-17T23:31:37.687Z,11.63
2018-03-17T23:34:05.179Z,12.47
2018-03-17T23:36:33.456Z,13.93
2018-03-17T23:39:00.946Z,13.77
2018-03-17T23:41:28.409Z,11.90
2018-03-17T23:43:55.899Z,12.90
2018-03-17T23:46:23.370Z,14.70
2018-03-17T23:48:51.634Z,12.70
2018-03-17T23:51:19.110Z,13.17
2018-03-17T23:53:46.666Z,14.03
2018-03-17T23:56:14.202Z,13.67
2018-03-17T23:58:41.785Z,13.17
